sensor_id;sensor_type;location;lat;lon;timestamp;temperature;humidity
35325;DHT22;35135;47.510;19.036;2022-08-01T00:00:23;26.20;42.50
35325;DHT22;35135;47.510;19.036;2022-08-01T00:02:49;26.20;42.50
35325;DHT22;35135;47.510;19.036;2022-08-01T00:05:18;26.20;42.50
35325;DHT22;35135;47.510;19.036;2022-08-01T00:07:47;26.20;42.50
35325;DHT22;35135;47.510;19.036;2022-08-01T00:10:21;26.20;42.50
35325;DHT22;35135;47.510;19.036;2022-08-01T00:12:50;26.20;42.50
35325;DHT22;35135;47.510;19.036;2022-08-01T00:15:18;26.20;42.50
35325;DHT22;35135;47.510;19.036;2022-08-01T00:17:47;26.20;42.50
35325;DHT22;35135;47.510;19.036;2022-08-01T00:20:14;26.20;42.50
35325;DHT22;35135;47.510;19.036;2022-08-01T00:22:43;26.20;42.50
35325;DHT22;35135;47.510;19.036;2022-08-01T00:25:10;26.20;42.50
35325;DHT22;35135;47.510;19.036;2022-08-01T00:27:38;26.20;42.50
35325;DHT22;35135;47.510;19.036;2022-08-01T00:30:07;26.20;42.50
35325;DHT22;35135;47.510;19.036;2022-08-01T00:32:34;26.20;42.40
35325;DHT22;35135;47.510;19.036;2022-08-01T00:35:03;26.20;42.50
35325;DHT22;35135;47.510;19.036;2022-08-01T00:37:30;26.20;42.50
35325;DHT22;35135;47.510;19.036;2022-08-01T00:40:01;26.20;42.50
35325;DHT22;35135;47.510;19.036;2022-08-01T00:42:27;26.20;42.50
35325;DHT22;35135;47.510;19.036;2022-08-01T00:44:57;26.20;42.50
35325;DHT22;35135;47.510;19.036;2022-08-01T00:47:29;26.20;42.50
35325;DHT22;35135;47.510;19.036;2022-08-01T00:50:00;26.20;42.50
35325;DHT22;35135;47.510;19.036;2022-08-01T00:52:32;26.20;42.50
35325;DHT22;35135;47.510;19.036;2022-08-01T00:55:01;26.20;42.60
35325;DHT22;35135;47.510;19.036;2022-08-01T00:57:29;26.10;42.50
35325;DHT22;35135;47.510;19.036;2022-08-01T00:59:55;26.10;42.50
35325;DHT22;35135;47.510;19.036;2022-08-01T01:02:22;26.10;42.50
35325;DHT22;35135;47.510;19.036;2022-08-01T01:04:49;26.10;42.50
35325;DHT22;35135;47.510;19.036;2022-08-01T01:07:19;26.10;42.50
35325;DHT22;35135;47.510;19.036;2022-08-01T01:09:56;26.10;42.50
35325;DHT22;35135;47.510;19.036;2022-08-01T01:15:21;26.10;42.60
35325;DHT22;35135;47.510;19.036;2022-08-01T01:20:18;26.10;42.60
35325;DHT22;35135;47.510;19.036;2022-08-01T01:25:39;26.10;42.60
35325;DHT22;35135;47.510;19.036;2022-08-01T01:28:38;26.10;42.60
35325;DHT22;35135;47.510;19.036;2022-08-01T01:31:09;26.10;42.60
35325;DHT22;35135;47.510;19.036;2022-08-01T01:33:39;26.10;42.60
35325;DHT22;35135;47.510;19.036;2022-08-01T01:36:11;26.10;42.60
35325;DHT22;35135;47.510;19.036;2022-08-01T01:38:41;26.10;42.60
35325;DHT22;35135;47.510;19.036;2022-08-01T01:41:12;26.10;42.50
35325;DHT22;35135;47.510;19.036;2022-08-01T01:43:42;26.10;42.40
35325;DHT22;35135;47.510;19.036;2022-08-01T01:46:10;26.10;42.50
35325;DHT22;35135;47.510;19.036;2022-08-01T01:48:46;26.10;42.40
35325;DHT22;35135;47.510;19.036;2022-08-01T01:51:14;26.10;42.40
35325;DHT22;35135;47.510;19.036;2022-08-01T01:53:42;26.10;42.40
35325;DHT22;35135;47.510;19.036;2022-08-01T01:56:10;26.10;42.40
35325;DHT22;35135;47.510;19.036;2022-08-01T01:58:38;26.10;42.40
35325;DHT22;35135;47.510;19.036;2022-08-01T02:01:09;26.00;42.30
35325;DHT22;35135;47.510;19.036;2022-08-01T02:03:38;26.00;42.30
35325;DHT22;35135;47.510;19.036;2022-08-01T02:06:07;26.00;42.30
35325;DHT22;35135;47.510;19.036;2022-08-01T02:08:37;26.00;42.30
35325;DHT22;35135;47.510;19.036;2022-08-01T02:11:05;26.00;42.40
35325;DHT22;35135;47.510;19.036;2022-08-01T02:13:52;26.00;42.40
35325;DHT22;35135;47.510;19.036;2022-08-01T02:16:23;26.00;42.40
35325;DHT22;35135;47.510;19.036;2022-08-01T02:18:51;26.00;42.40
35325;DHT22;35135;47.510;19.036;2022-08-01T02:21:23;26.00;42.40
35325;DHT22;35135;47.510;19.036;2022-08-01T02:23:52;26.00;42.40
35325;DHT22;35135;47.510;19.036;2022-08-01T02:26:21;26.00;42.40
35325;DHT22;35135;47.510;19.036;2022-08-01T02:28:51;26.00;42.40
35325;DHT22;35135;47.510;19.036;2022-08-01T02:31:21;26.00;42.40
35325;DHT22;35135;47.510;19.036;2022-08-01T02:33:52;26.00;42.50
35325;DHT22;35135;47.510;19.036;2022-08-01T02:36:20;26.00;42.50
35325;DHT22;35135;47.510;19.036;2022-08-01T02:38:48;26.00;42.50
35325;DHT22;35135;47.510;19.036;2022-08-01T02:41:20;26.00;42.50
35325;DHT22;35135;47.510;19.036;2022-08-01T02:43:50;26.00;42.50
35325;DHT22;35135;47.510;19.036;2022-08-01T02:46:22;26.00;42.60
35325;DHT22;35135;47.510;19.036;2022-08-01T02:48:52;26.00;42.60
35325;DHT22;35135;47.510;19.036;2022-08-01T02:51:21;26.00;42.60
35325;DHT22;35135;47.510;19.036;2022-08-01T02:53:48;25.90;42.60
35325;DHT22;35135;47.510;19.036;2022-08-01T02:56:17;26.00;42.70
35325;DHT22;35135;47.510;19.036;2022-08-01T02:58:45;26.00;42.70
35325;DHT22;35135;47.510;19.036;2022-08-01T03:01:13;26.00;42.70
35325;DHT22;35135;47.510;19.036;2022-08-01T03:03:41;26.00;42.70
35325;DHT22;35135;47.510;19.036;2022-08-01T03:06:10;25.90;42.60
35325;DHT22;35135;47.510;19.036;2022-08-01T03:08:41;26.00;42.70
35325;DHT22;35135;47.510;19.036;2022-08-01T03:11:09;26.00;42.70
35325;DHT22;35135;47.510;19.036;2022-08-01T03:13:40;26.00;42.70
35325;DHT22;35135;47.510;19.036;2022-08-01T03:16:07;26.00;42.70
35325;DHT22;35135;47.510;19.036;2022-08-01T03:18:38;26.00;42.70
35325;DHT22;35135;47.510;19.036;2022-08-01T03:21:06;26.00;42.70
35325;DHT22;35135;47.510;19.036;2022-08-01T03:23:36;25.90;42.60
35325;DHT22;35135;47.510;19.036;2022-08-01T03:26:07;25.90;42.70
35325;DHT22;35135;47.510;19.036;2022-08-01T03:28:41;25.90;42.80
35325;DHT22;35135;47.510;19.036;2022-08-01T03:31:10;25.90;42.90
35325;DHT22;35135;47.510;19.036;2022-08-01T03:33:43;25.90;42.90
35325;DHT22;35135;47.510;19.036;2022-08-01T03:36:17;26.00;43.00
35325;DHT22;35135;47.510;19.036;2022-08-01T03:38:48;25.90;42.80
35325;DHT22;35135;47.510;19.036;2022-08-01T03:41:20;25.90;42.80
35325;DHT22;35135;47.510;19.036;2022-08-01T03:43:50;25.90;42.80
35325;DHT22;35135;47.510;19.036;2022-08-01T03:46:20;25.90;42.80
35325;DHT22;35135;47.510;19.036;2022-08-01T03:48:49;25.90;42.80
35325;DHT22;35135;47.510;19.036;2022-08-01T03:51:20;25.90;42.80
35325;DHT22;35135;47.510;19.036;2022-08-01T03:53:48;25.90;42.80
35325;DHT22;35135;47.510;19.036;2022-08-01T03:56:17;25.90;42.80
35325;DHT22;35135;47.510;19.036;2022-08-01T03:58:54;25.90;42.90
35325;DHT22;35135;47.510;19.036;2022-08-01T04:01:23;25.90;43.00
35325;DHT22;35135;47.510;19.036;2022-08-01T04:03:51;25.90;43.00
35325;DHT22;35135;47.510;19.036;2022-08-01T04:06:18;25.90;43.00
35325;DHT22;35135;47.510;19.036;2022-08-01T04:08:46;25.90;43.00
35325;DHT22;35135;47.510;19.036;2022-08-01T04:11:24;25.90;43.00
35325;DHT22;35135;47.510;19.036;2022-08-01T04:13:53;25.90;43.10
35325;DHT22;35135;47.510;19.036;2022-08-01T04:16:21;25.90;43.10
35325;DHT22;35135;47.510;19.036;2022-08-01T04:18:49;25.90;43.00
35325;DHT22;35135;47.510;19.036;2022-08-01T04:21:25;25.90;42.90
35325;DHT22;35135;47.510;19.036;2022-08-01T04:23:58;25.90;43.00
35325;DHT22;35135;47.510;19.036;2022-08-01T04:26:27;25.90;43.00
35325;DHT22;35135;47.510;19.036;2022-08-01T04:28:56;25.90;43.00
35325;DHT22;35135;47.510;19.036;2022-08-01T04:31:25;25.90;43.00
35325;DHT22;35135;47.510;19.036;2022-08-01T04:33:53;25.90;43.00
35325;DHT22;35135;47.510;19.036;2022-08-01T04:36:20;25.90;43.00
35325;DHT22;35135;47.510;19.036;2022-08-01T04:38:55;26.00;43.10
35325;DHT22;35135;47.510;19.036;2022-08-01T04:41:21;26.00;43.10
35325;DHT22;35135;47.510;19.036;2022-08-01T04:43:49;26.00;43.10
35325;DHT22;35135;47.510;19.036;2022-08-01T04:46:19;26.00;43.10
35325;DHT22;35135;47.510;19.036;2022-08-01T04:48:46;26.10;43.10
35325;DHT22;35135;47.510;19.036;2022-08-01T04:51:21;26.10;43.10
35325;DHT22;35135;47.510;19.036;2022-08-01T04:53:52;26.10;43.10
35325;DHT22;35135;47.510;19.036;2022-08-01T04:56:20;26.10;43.10
35325;DHT22;35135;47.510;19.036;2022-08-01T04:58:51;26.20;43.20
35325;DHT22;35135;47.510;19.036;2022-08-01T05:01:38;26.20;43.20
35325;DHT22;35135;47.510;19.036;2022-08-01T05:04:06;26.20;43.20
35325;DHT22;35135;47.510;19.036;2022-08-01T05:06:35;26.30;43.30
35325;DHT22;35135;47.510;19.036;2022-08-01T05:09:02;26.30;43.30
35325;DHT22;35135;47.510;19.036;2022-08-01T05:11:30;26.30;43.30
35325;DHT22;35135;47.510;19.036;2022-08-01T05:14:00;26.30;43.30
35325;DHT22;35135;47.510;19.036;2022-08-01T05:16:29;26.40;43.30
35325;DHT22;35135;47.510;19.036;2022-08-01T05:18:57;26.40;43.30
35325;DHT22;35135;47.510;19.036;2022-08-01T05:21:30;26.40;43.20
35325;DHT22;35135;47.510;19.036;2022-08-01T05:23:58;26.40;43.20
35325;DHT22;35135;47.510;19.036;2022-08-01T05:26:26;26.40;43.30
35325;DHT22;35135;47.510;19.036;2022-08-01T05:28:53;26.50;43.30
35325;DHT22;35135;47.510;19.036;2022-08-01T05:31:19;26.50;43.40
35325;DHT22;35135;47.510;19.036;2022-08-01T05:33:47;26.50;43.60
35325;DHT22;35135;47.510;19.036;2022-08-01T05:36:14;26.50;43.40
35325;DHT22;35135;47.510;19.036;2022-08-01T05:38:42;26.50;43.60
35325;DHT22;35135;47.510;19.036;2022-08-01T05:41:07;26.60;43.70
35325;DHT22;35135;47.510;19.036;2022-08-01T05:43:33;26.60;43.70
35325;DHT22;35135;47.510;19.036;2022-08-01T05:46:01;26.60;43.90
35325;DHT22;35135;47.510;19.036;2022-08-01T05:48:28;26.70;44.00
35325;DHT22;35135;47.510;19.036;2022-08-01T05:50:56;26.70;43.90
35325;DHT22;35135;47.510;19.036;2022-08-01T05:53:24;26.70;43.70
35325;DHT22;35135;47.510;19.036;2022-08-01T05:55:54;26.80;43.90
35325;DHT22;35135;47.510;19.036;2022-08-01T05:58:22;26.80;43.70
35325;DHT22;35135;47.510;19.036;2022-08-01T06:00:49;26.80;43.70
35325;DHT22;35135;47.510;19.036;2022-08-01T06:03:18;26.80;43.60
35325;DHT22;35135;47.510;19.036;2022-08-01T06:05:45;26.80;43.50
35325;DHT22;35135;47.510;19.036;2022-08-01T06:08:21;26.80;43.40
35325;DHT22;35135;47.510;19.036;2022-08-01T06:10:49;26.80;43.50
35325;DHT22;35135;47.510;19.036;2022-08-01T06:13:17;26.90;43.50
35325;DHT22;35135;47.510;19.036;2022-08-01T06:15:46;26.90;43.60
35325;DHT22;35135;47.510;19.036;2022-08-01T06:18:14;26.90;43.50
35325;DHT22;35135;47.510;19.036;2022-08-01T06:20:43;26.90;43.50
35325;DHT22;35135;47.510;19.036;2022-08-01T06:23:11;26.90;43.70
35325;DHT22;35135;47.510;19.036;2022-08-01T06:25:42;27.00;43.70
35325;DHT22;35135;47.510;19.036;2022-08-01T06:28:11;27.00;43.80
35325;DHT22;35135;47.510;19.036;2022-08-01T06:30:39;27.00;43.70
35325;DHT22;35135;47.510;19.036;2022-08-01T06:33:08;27.00;43.60
35325;DHT22;35135;47.510;19.036;2022-08-01T06:35:41;27.10;43.60
35325;DHT22;35135;47.510;19.036;2022-08-01T06:38:09;27.10;43.40
35325;DHT22;35135;47.510;19.036;2022-08-01T06:40:36;27.10;43.30
35325;DHT22;35135;47.510;19.036;2022-08-01T06:43:04;27.10;43.10
35325;DHT22;35135;47.510;19.036;2022-08-01T06:45:41;27.10;43.10
35325;DHT22;35135;47.510;19.036;2022-08-01T06:48:09;27.10;43.10
35325;DHT22;35135;47.510;19.036;2022-08-01T06:50:36;27.20;43.00
35325;DHT22;35135;47.510;19.036;2022-08-01T06:53:08;27.20;43.00
35325;DHT22;35135;47.510;19.036;2022-08-01T06:55:34;27.20;42.90
35325;DHT22;35135;47.510;19.036;2022-08-01T06:58:02;27.20;43.20
35325;DHT22;35135;47.510;19.036;2022-08-01T07:00:34;27.20;43.00
35325;DHT22;35135;47.510;19.036;2022-08-01T07:03:02;27.20;43.00
35325;DHT22;35135;47.510;19.036;2022-08-01T07:05:29;27.20;43.50
35325;DHT22;35135;47.510;19.036;2022-08-01T07:07:58;27.20;43.10
35325;DHT22;35135;47.510;19.036;2022-08-01T07:10:25;27.20;42.90
35325;DHT22;35135;47.510;19.036;2022-08-01T07:12:51;27.20;42.80
35325;DHT22;35135;47.510;19.036;2022-08-01T07:15:19;27.20;42.80
35325;DHT22;35135;47.510;19.036;2022-08-01T07:17:52;27.20;42.70
35325;DHT22;35135;47.510;19.036;2022-08-01T07:20:20;27.30;42.60
35325;DHT22;35135;47.510;19.036;2022-08-01T07:22:47;27.20;42.40
35325;DHT22;35135;47.510;19.036;2022-08-01T07:25:16;27.20;42.20
35325;DHT22;35135;47.510;19.036;2022-08-01T07:27:43;27.20;42.20
35325;DHT22;35135;47.510;19.036;2022-08-01T07:30:10;27.20;42.10
35325;DHT22;35135;47.510;19.036;2022-08-01T07:32:37;27.20;42.00
35325;DHT22;35135;47.510;19.036;2022-08-01T07:35:03;27.20;41.90
35325;DHT22;35135;47.510;19.036;2022-08-01T07:37:31;27.10;41.90
35325;DHT22;35135;47.510;19.036;2022-08-01T07:39:58;27.20;41.80
35325;DHT22;35135;47.510;19.036;2022-08-01T07:42:25;27.20;41.70
35325;DHT22;35135;47.510;19.036;2022-08-01T07:44:53;27.10;41.40
35325;DHT22;35135;47.510;19.036;2022-08-01T07:47:25;27.10;41.40
35325;DHT22;35135;47.510;19.036;2022-08-01T07:50:01;27.10;41.00
35325;DHT22;35135;47.510;19.036;2022-08-01T07:52:29;27.10;41.00
35325;DHT22;35135;47.510;19.036;2022-08-01T07:54:59;27.10;40.90
35325;DHT22;35135;47.510;19.036;2022-08-01T07:57:27;27.10;40.90
35325;DHT22;35135;47.510;19.036;2022-08-01T07:59:56;27.10;40.90
35325;DHT22;35135;47.510;19.036;2022-08-01T08:02:23;27.10;40.80
35325;DHT22;35135;47.510;19.036;2022-08-01T08:04:52;27.10;40.80
35325;DHT22;35135;47.510;19.036;2022-08-01T08:07:20;27.10;40.80
35325;DHT22;35135;47.510;19.036;2022-08-01T08:09:47;27.10;40.70
35325;DHT22;35135;47.510;19.036;2022-08-01T08:12:15;27.10;40.70
35325;DHT22;35135;47.510;19.036;2022-08-01T08:14:42;27.10;40.40
35325;DHT22;35135;47.510;19.036;2022-08-01T08:17:12;27.10;40.40
35325;DHT22;35135;47.510;19.036;2022-08-01T08:19:40;27.10;40.40
35325;DHT22;35135;47.510;19.036;2022-08-01T08:22:08;27.10;40.30
35325;DHT22;35135;47.510;19.036;2022-08-01T08:24:38;27.10;40.20
35325;DHT22;35135;47.510;19.036;2022-08-01T08:27:04;27.10;40.10
35325;DHT22;35135;47.510;19.036;2022-08-01T08:29:33;27.10;40.30
35325;DHT22;35135;47.510;19.036;2022-08-01T08:32:01;27.10;40.20
35325;DHT22;35135;47.510;19.036;2022-08-01T08:34:30;27.10;40.00
35325;DHT22;35135;47.510;19.036;2022-08-01T08:37:00;27.10;40.10
35325;DHT22;35135;47.510;19.036;2022-08-01T08:39:26;27.10;40.20
35325;DHT22;35135;47.510;19.036;2022-08-01T08:42:05;27.00;40.10
35325;DHT22;35135;47.510;19.036;2022-08-01T08:44:37;27.10;40.20
35325;DHT22;35135;47.510;19.036;2022-08-01T08:47:07;27.10;40.20
35325;DHT22;35135;47.510;19.036;2022-08-01T08:49:37;27.00;40.10
35325;DHT22;35135;47.510;19.036;2022-08-01T08:52:11;27.00;40.20
35325;DHT22;35135;47.510;19.036;2022-08-01T08:54:40;27.00;40.30
35325;DHT22;35135;47.510;19.036;2022-08-01T08:57:07;27.00;40.40
35325;DHT22;35135;47.510;19.036;2022-08-01T08:59:36;27.00;40.50
35325;DHT22;35135;47.510;19.036;2022-08-01T09:02:07;27.00;40.50
35325;DHT22;35135;47.510;19.036;2022-08-01T09:04:35;27.10;40.60
35325;DHT22;35135;47.510;19.036;2022-08-01T09:07:04;27.10;40.60
35325;DHT22;35135;47.510;19.036;2022-08-01T09:09:31;27.10;40.60
35325;DHT22;35135;47.510;19.036;2022-08-01T09:12:00;27.10;40.60
35325;DHT22;35135;47.510;19.036;2022-08-01T09:14:27;27.10;40.70
35325;DHT22;35135;47.510;19.036;2022-08-01T09:17:06;27.10;40.70
35325;DHT22;35135;47.510;19.036;2022-08-01T09:19:40;27.10;40.60
35325;DHT22;35135;47.510;19.036;2022-08-01T09:22:12;27.10;40.70
35325;DHT22;35135;47.510;19.036;2022-08-01T09:24:40;27.10;40.60
35325;DHT22;35135;47.510;19.036;2022-08-01T09:27:17;27.10;40.70
35325;DHT22;35135;47.510;19.036;2022-08-01T09:29:44;27.10;40.70
35325;DHT22;35135;47.510;19.036;2022-08-01T09:32:12;27.10;40.70
35325;DHT22;35135;47.510;19.036;2022-08-01T09:34:44;27.10;40.70
35325;DHT22;35135;47.510;19.036;2022-08-01T09:37:15;27.10;40.70
35325;DHT22;35135;47.510;19.036;2022-08-01T09:39:45;27.10;40.70
35325;DHT22;35135;47.510;19.036;2022-08-01T09:42:24;27.10;40.80
35325;DHT22;35135;47.510;19.036;2022-08-01T09:44:51;27.10;40.80
35325;DHT22;35135;47.510;19.036;2022-08-01T09:47:19;27.10;40.80
35325;DHT22;35135;47.510;19.036;2022-08-01T09:49:56;27.10;40.80
35325;DHT22;35135;47.510;19.036;2022-08-01T09:52:24;27.10;40.80
35325;DHT22;35135;47.510;19.036;2022-08-01T09:54:53;27.10;40.80
35325;DHT22;35135;47.510;19.036;2022-08-01T09:57:21;27.10;40.80
35325;DHT22;35135;47.510;19.036;2022-08-01T09:59:51;27.20;40.90
35325;DHT22;35135;47.510;19.036;2022-08-01T10:05:04;27.20;40.80
35325;DHT22;35135;47.510;19.036;2022-08-01T10:07:32;27.20;40.80
35325;DHT22;35135;47.510;19.036;2022-08-01T10:10:15;27.20;40.70
35325;DHT22;35135;47.510;19.036;2022-08-01T10:12:42;27.20;40.70
35325;DHT22;35135;47.510;19.036;2022-08-01T10:15:09;27.20;40.70
35325;DHT22;35135;47.510;19.036;2022-08-01T10:17:38;27.20;40.70
35325;DHT22;35135;47.510;19.036;2022-08-01T10:20:06;27.20;40.70
35325;DHT22;35135;47.510;19.036;2022-08-01T10:22:34;27.20;40.70
35325;DHT22;35135;47.510;19.036;2022-08-01T10:25:03;27.20;40.60
35325;DHT22;35135;47.510;19.036;2022-08-01T10:27:32;27.20;40.50
35325;DHT22;35135;47.510;19.036;2022-08-01T10:30:00;27.20;40.70
35325;DHT22;35135;47.510;19.036;2022-08-01T10:32:36;27.20;40.70
35325;DHT22;35135;47.510;19.036;2022-08-01T10:35:06;27.20;40.70
35325;DHT22;35135;47.510;19.036;2022-08-01T10:37:34;27.20;40.70
35325;DHT22;35135;47.510;19.036;2022-08-01T10:40:01;27.20;40.90
35325;DHT22;35135;47.510;19.036;2022-08-01T10:42:31;27.20;40.90
35325;DHT22;35135;47.510;19.036;2022-08-01T10:44:59;27.20;40.90
35325;DHT22;35135;47.510;19.036;2022-08-01T10:47:29;27.30;41.10
35325;DHT22;35135;47.510;19.036;2022-08-01T10:50:04;27.20;41.10
35325;DHT22;35135;47.510;19.036;2022-08-01T10:52:32;27.20;41.10
35325;DHT22;35135;47.510;19.036;2022-08-01T10:55:06;27.30;41.10
35325;DHT22;35135;47.510;19.036;2022-08-01T10:57:42;27.30;41.20
35325;DHT22;35135;47.510;19.036;2022-08-01T11:00:16;27.30;41.30
35325;DHT22;35135;47.510;19.036;2022-08-01T11:02:56;27.30;41.30
35325;DHT22;35135;47.510;19.036;2022-08-01T11:05:24;27.30;41.40
35325;DHT22;35135;47.510;19.036;2022-08-01T11:07:52;27.30;41.40
35325;DHT22;35135;47.510;19.036;2022-08-01T11:10:21;27.30;41.50
35325;DHT22;35135;47.510;19.036;2022-08-01T11:12:50;27.30;41.60
35325;DHT22;35135;47.510;19.036;2022-08-01T11:15:22;27.30;41.60
35325;DHT22;35135;47.510;19.036;2022-08-01T11:17:52;27.30;41.70
35325;DHT22;35135;47.510;19.036;2022-08-01T11:20:25;27.30;41.70
35325;DHT22;35135;47.510;19.036;2022-08-01T11:30:52;27.30;41.90
35325;DHT22;35135;47.510;19.036;2022-08-01T11:38:38;27.40;42.20
35325;DHT22;35135;47.510;19.036;2022-08-01T11:41:22;27.40;42.20
35325;DHT22;35135;47.510;19.036;2022-08-01T11:47:06;27.40;42.20
35325;DHT22;35135;47.510;19.036;2022-08-01T11:54:36;27.40;42.40
35325;DHT22;35135;47.510;19.036;2022-08-01T11:57:13;27.40;42.40
35325;DHT22;35135;47.510;19.036;2022-08-01T11:59:45;27.40;42.40
35325;DHT22;35135;47.510;19.036;2022-08-01T12:02:33;27.40;42.50
35325;DHT22;35135;47.510;19.036;2022-08-01T12:05:04;27.40;42.60
35325;DHT22;35135;47.510;19.036;2022-08-01T12:07:31;27.40;42.60
35325;DHT22;35135;47.510;19.036;2022-08-01T12:12:36;27.40;42.60
35325;DHT22;35135;47.510;19.036;2022-08-01T12:15:09;27.50;42.60
35325;DHT22;35135;47.510;19.036;2022-08-01T12:17:41;27.50;42.60
35325;DHT22;35135;47.510;19.036;2022-08-01T12:20:12;27.40;42.60
35325;DHT22;35135;47.510;19.036;2022-08-01T12:22:56;27.50;42.60
35325;DHT22;35135;47.510;19.036;2022-08-01T12:25:23;27.50;42.70
35325;DHT22;35135;47.510;19.036;2022-08-01T12:27:53;27.50;42.70
35325;DHT22;35135;47.510;19.036;2022-08-01T12:30:22;27.50;42.60
35325;DHT22;35135;47.510;19.036;2022-08-01T12:32:49;27.50;42.70
35325;DHT22;35135;47.510;19.036;2022-08-01T12:35:23;27.50;42.60
35325;DHT22;35135;47.510;19.036;2022-08-01T12:40:23;27.50;42.70
35325;DHT22;35135;47.510;19.036;2022-08-01T12:42:52;27.50;42.70
35325;DHT22;35135;47.510;19.036;2022-08-01T12:45:19;27.50;42.60
35325;DHT22;35135;47.510;19.036;2022-08-01T12:47:47;27.50;42.60
35325;DHT22;35135;47.510;19.036;2022-08-01T12:50:16;27.50;42.60
35325;DHT22;35135;47.510;19.036;2022-08-01T12:52:45;27.50;42.60
35325;DHT22;35135;47.510;19.036;2022-08-01T12:55:14;27.50;42.60
35325;DHT22;35135;47.510;19.036;2022-08-01T12:57:44;27.50;42.60
35325;DHT22;35135;47.510;19.036;2022-08-01T13:00:16;27.60;42.60
35325;DHT22;35135;47.510;19.036;2022-08-01T13:02:45;27.60;42.50
35325;DHT22;35135;47.510;19.036;2022-08-01T13:05:13;27.60;42.50
35325;DHT22;35135;47.510;19.036;2022-08-01T13:07:41;27.60;42.50
35325;DHT22;35135;47.510;19.036;2022-08-01T13:10:10;27.60;42.50
35325;DHT22;35135;47.510;19.036;2022-08-01T13:12:38;27.60;42.50
35325;DHT22;35135;47.510;19.036;2022-08-01T13:18:48;27.60;42.40
35325;DHT22;35135;47.510;19.036;2022-08-01T13:20:49;27.60;42.40
35325;DHT22;35135;47.510;19.036;2022-08-01T13:23:18;27.60;42.20
35325;DHT22;35135;47.510;19.036;2022-08-01T13:25:53;27.60;41.90
35325;DHT22;35135;47.510;19.036;2022-08-01T13:28:35;27.60;41.90
35325;DHT22;35135;47.510;19.036;2022-08-01T13:31:06;27.60;42.10
35325;DHT22;35135;47.510;19.036;2022-08-01T13:33:42;27.60;42.00
35325;DHT22;35135;47.510;19.036;2022-08-01T13:36:08;27.60;42.00
35325;DHT22;35135;47.510;19.036;2022-08-01T13:38:36;27.70;42.10
35325;DHT22;35135;47.510;19.036;2022-08-01T13:41:22;27.70;42.00
35325;DHT22;35135;47.510;19.036;2022-08-01T13:43:49;27.70;42.00
35325;DHT22;35135;47.510;19.036;2022-08-01T13:46:18;27.70;42.10
35325;DHT22;35135;47.510;19.036;2022-08-01T13:48:45;27.70;42.20
35325;DHT22;35135;47.510;19.036;2022-08-01T13:51:13;27.70;42.10
35325;DHT22;35135;47.510;19.036;2022-08-01T13:53:40;27.70;42.00
35325;DHT22;35135;47.510;19.036;2022-08-01T13:56:08;27.70;42.10
35325;DHT22;35135;47.510;19.036;2022-08-01T13:58:36;27.70;42.00
35325;DHT22;35135;47.510;19.036;2022-08-01T14:01:03;27.70;42.10
35325;DHT22;35135;47.510;19.036;2022-08-01T14:03:32;27.70;42.10
35325;DHT22;35135;47.510;19.036;2022-08-01T14:05:59;27.70;42.20
35325;DHT22;35135;47.510;19.036;2022-08-01T14:08:27;27.80;42.30
35325;DHT22;35135;47.510;19.036;2022-08-01T14:10:55;27.80;42.40
35325;DHT22;35135;47.510;19.036;2022-08-01T14:13:25;27.80;42.40
35325;DHT22;35135;47.510;19.036;2022-08-01T14:15:52;27.80;42.30
35325;DHT22;35135;47.510;19.036;2022-08-01T14:18:20;27.80;42.90
35325;DHT22;35135;47.510;19.036;2022-08-01T14:20:49;27.80;42.30
35325;DHT22;35135;47.510;19.036;2022-08-01T14:23:17;27.80;42.20
35325;DHT22;35135;47.510;19.036;2022-08-01T14:25:44;27.80;42.10
35325;DHT22;35135;47.510;19.036;2022-08-01T14:28:12;27.80;42.10
35325;DHT22;35135;47.510;19.036;2022-08-01T14:30:43;27.80;42.10
35325;DHT22;35135;47.510;19.036;2022-08-01T14:33:10;27.80;42.20
35325;DHT22;35135;47.510;19.036;2022-08-01T14:35:38;27.80;42.10
35325;DHT22;35135;47.510;19.036;2022-08-01T14:38:07;27.80;42.00
35325;DHT22;35135;47.510;19.036;2022-08-01T14:40:34;27.80;41.90
35325;DHT22;35135;47.510;19.036;2022-08-01T14:43:01;27.80;41.90
35325;DHT22;35135;47.510;19.036;2022-08-01T14:45:29;27.80;41.90
35325;DHT22;35135;47.510;19.036;2022-08-01T14:47:57;27.80;41.90
35325;DHT22;35135;47.510;19.036;2022-08-01T14:50:23;27.90;42.00
35325;DHT22;35135;47.510;19.036;2022-08-01T14:52:58;27.90;42.10
35325;DHT22;35135;47.510;19.036;2022-08-01T14:55:26;27.90;42.10
35325;DHT22;35135;47.510;19.036;2022-08-01T14:57:54;27.90;42.10
35325;DHT22;35135;47.510;19.036;2022-08-01T15:00:21;27.90;42.10
35325;DHT22;35135;47.510;19.036;2022-08-01T15:02:49;27.90;42.10
35325;DHT22;35135;47.510;19.036;2022-08-01T15:05:17;27.90;42.10
35325;DHT22;35135;47.510;19.036;2022-08-01T15:07:44;27.90;42.10
35325;DHT22;35135;47.510;19.036;2022-08-01T15:10:16;27.90;42.10
35325;DHT22;35135;47.510;19.036;2022-08-01T15:12:43;27.90;42.10
35325;DHT22;35135;47.510;19.036;2022-08-01T15:15:10;27.90;42.20
35325;DHT22;35135;47.510;19.036;2022-08-01T15:17:36;27.90;42.30
35325;DHT22;35135;47.510;19.036;2022-08-01T15:20:05;27.90;42.30
35325;DHT22;35135;47.510;19.036;2022-08-01T15:22:31;27.90;42.30
35325;DHT22;35135;47.510;19.036;2022-08-01T15:24:59;27.90;42.40
35325;DHT22;35135;47.510;19.036;2022-08-01T15:27:32;27.90;42.30
35325;DHT22;35135;47.510;19.036;2022-08-01T15:29:59;27.90;42.30
35325;DHT22;35135;47.510;19.036;2022-08-01T15:32:32;27.90;42.30
35325;DHT22;35135;47.510;19.036;2022-08-01T15:35:00;28.00;42.40
35325;DHT22;35135;47.510;19.036;2022-08-01T15:37:27;27.90;42.30
35325;DHT22;35135;47.510;19.036;2022-08-01T15:39:55;27.90;42.30
35325;DHT22;35135;47.510;19.036;2022-08-01T15:42:32;28.00;42.60
35325;DHT22;35135;47.510;19.036;2022-08-01T15:45:00;28.00;43.20
35325;DHT22;35135;47.510;19.036;2022-08-01T15:47:32;28.00;43.20
35325;DHT22;35135;47.510;19.036;2022-08-01T15:49:59;28.00;43.00
35325;DHT22;35135;47.510;19.036;2022-08-01T15:52:28;28.00;42.90
35325;DHT22;35135;47.510;19.036;2022-08-01T15:54:58;28.00;42.70
35325;DHT22;35135;47.510;19.036;2022-08-01T15:57:25;28.00;42.60
35325;DHT22;35135;47.510;19.036;2022-08-01T15:59:54;28.00;42.60
35325;DHT22;35135;47.510;19.036;2022-08-01T16:02:22;28.00;42.50
35325;DHT22;35135;47.510;19.036;2022-08-01T16:04:48;28.00;42.40
35325;DHT22;35135;47.510;19.036;2022-08-01T16:07:15;28.00;42.60
35325;DHT22;35135;47.510;19.036;2022-08-01T16:09:41;28.10;42.90